Time;durP1;ratioP1;P1;durP2;ratioP2;P2;SDS_P1;SDS_P2;PMS_P1;PMS_P2;Temp;Humidity;BMP_temperature;BMP_pressure;BME280_temperature;BME280_humidity;BME280_pressure;Samples;Min_cycle;Max_cycle;Signal;HPM_P1;HPM_P2
2022/09/02 00:02:24;;;;;;;4.87;2.20;;;19.40;61.80;;;;;;5035671;28;20461;-75
2022/09/02 00:04:53;;;;;;;6.50;2.70;;;19.40;61.80;;;;;;5025272;28;20465;-75
2022/09/02 00:07:23;;;;;;;5.07;2.23;;;19.40;61.80;;;;;;5032204;28;20453;-75
2022/09/02 00:09:51;;;;;;;4.60;2.10;;;19.40;61.80;;;;;;5022857;28;20489;-75
2022/09/02 00:12:20;;;;;;;6.50;2.70;;;19.40;61.80;;;;;;5033228;28;20462;-75
2022/09/02 00:14:48;;;;;;;5.90;2.20;;;19.40;61.80;;;;;;5038609;28;20469;-76
2022/09/02 00:17:16;;;;;;;7.50;2.97;;;19.40;61.70;;;;;;5016340;28;20480;-75
2022/09/02 00:19:44;;;;;;;5.23;2.80;;;19.40;61.80;;;;;;5016765;28;20495;-75
2022/09/02 00:22:13;;;;;;;5.83;2.37;;;19.40;61.70;;;;;;5031104;28;20467;-75
2022/09/02 00:24:41;;;;;;;5.43;2.80;;;19.30;61.60;;;;;;5019385;28;20470;-75
2022/09/02 00:27:09;;;;;;;5.30;2.60;;;19.30;61.50;;;;;;5031482;28;20979;-75
2022/09/02 00:29:38;;;;;;;6.40;2.90;;;19.20;61.60;;;;;;5021379;28;21310;-75
2022/09/02 00:32:06;;;;;;;6.77;2.93;;;19.10;61.60;;;;;;5018516;28;21333;-75
2022/09/02 00:34:34;;;;;;;6.10;2.83;;;19.10;61.60;;;;;;5020490;28;20455;-75
2022/09/02 00:37:02;;;;;;;4.90;2.57;;;19.00;61.60;;;;;;5017937;28;20474;-75
2022/09/02 00:39:32;;;;;;;5.20;2.60;;;18.90;61.60;;;;;;5018356;28;20994;-75
2022/09/02 00:42:01;;;;;;;4.97;2.77;;;18.80;61.70;;;;;;5034387;28;20473;-75
2022/09/02 00:44:29;;;;;;;6.63;2.90;;;18.80;61.70;;;;;;5020141;28;20545;-75
2022/09/02 00:46:57;;;;;;;8.27;3.20;;;18.70;61.70;;;;;;5018409;28;20526;-75
2022/09/02 00:49:27;;;;;;;5.30;2.80;;;18.60;61.80;;;;;;5026113;28;20858;-75
2022/09/02 00:52:02;;;;;;;5.60;2.80;;;18.50;62.00;;;;;;5028865;28;20490;-75
2022/09/02 00:54:34;;;;;;;6.40;3.00;;;18.50;62.10;;;;;;5016467;28;20466;-74
2022/09/02 00:57:07;;;;;;;18.33;3.60;;;18.40;62.10;;;;;;5031903;28;20471;-75
2022/09/02 00:59:46;;;;;;;6.03;2.80;;;18.40;62.20;;;;;;5034065;28;21045;-75
2022/09/02 01:02:15;;;;;;;7.33;3.07;;;18.40;62.20;;;;;;5034696;28;21200;-75
2022/09/02 01:04:45;;;;;;;9.13;2.67;;;18.30;62.30;;;;;;5023870;28;21009;-75
2022/09/02 01:07:14;;;;;;;4.50;2.47;;;18.30;62.30;;;;;;5017496;28;20464;-75
2022/09/02 01:09:44;;;;;;;5.33;2.67;;;18.20;62.30;;;;;;5016248;28;21468;-75
2022/09/02 01:12:13;;;;;;;8.40;3.20;;;18.20;62.40;;;;;;5023355;28;20560;-75
2022/09/02 01:14:41;;;;;;;6.00;3.50;;;18.10;62.50;;;;;;5026640;28;20460;-75
2022/09/02 01:17:10;;;;;;;6.20;2.90;;;18.10;62.60;;;;;;5015187;28;20580;-75
2022/09/02 01:19:42;;;;;;;5.67;2.97;;;18.10;62.60;;;;;;5034676;28;20486;-75
2022/09/02 01:22:20;;;;;;;5.63;2.70;;;18.10;62.70;;;;;;5016222;28;20464;-75
2022/09/02 01:24:48;;;;;;;8.33;2.90;;;18.10;62.70;;;;;;5016442;28;20474;-75
2022/09/02 01:27:20;;;;;;;5.40;2.73;;;18.10;62.70;;;;;;5021652;28;20475;-75
2022/09/02 01:29:52;;;;;;;5.30;2.97;;;18.00;62.70;;;;;;5024053;28;21101;-76
2022/09/02 01:32:20;;;;;;;4.70;2.90;;;18.00;62.70;;;;;;5016409;28;20666;-75
2022/09/02 01:34:48;;;;;;;5.27;2.80;;;18.00;62.70;;;;;;5017799;28;20489;-75
2022/09/02 01:37:18;;;;;;;6.40;3.00;;;17.90;62.80;;;;;;5034953;28;20482;-76
2022/09/02 01:39:47;;;;;;;6.03;2.73;;;17.90;62.80;;;;;;5040058;28;20490;-75
2022/09/02 01:42:15;;;;;;;5.73;2.80;;;17.90;62.90;;;;;;5030718;28;21010;-75
2022/09/02 01:44:43;;;;;;;7.63;3.10;;;17.90;62.90;;;;;;5028256;28;20490;-75
2022/09/02 01:47:13;;;;;;;6.40;3.10;;;17.90;63.00;;;;;;5020457;28;20547;-73
2022/09/02 01:49:42;;;;;;;6.90;2.90;;;17.90;63.00;;;;;;5020458;28;21027;-72
2022/09/02 01:52:11;;;;;;;5.53;3.00;;;17.90;63.00;;;;;;5033955;28;20557;-73
2022/09/02 01:54:40;;;;;;;6.17;2.97;;;17.80;63.00;;;;;;5019958;28;20466;-72
2022/09/02 01:57:09;;;;;;;4.83;2.30;;;17.80;63.10;;;;;;5025760;28;20577;-73
2022/09/02 01:59:38;;;;;;;5.47;3.07;;;17.70;63.10;;;;;;5022228;28;20471;-73
2022/09/02 02:02:07;;;;;;;5.43;2.37;;;17.70;63.20;;;;;;5024886;28;20504;-73
2022/09/02 02:04:36;;;;;;;14.60;2.60;;;17.70;63.20;;;;;;5029401;28;20832;-73
2022/09/02 02:07:06;;;;;;;5.67;2.57;;;17.70;63.30;;;;;;5019589;28;20458;-73
2022/09/02 02:09:34;;;;;;;5.07;2.93;;;17.70;63.30;;;;;;5022714;28;20482;-72
2022/09/02 02:12:05;;;;;;;5.10;2.83;;;17.70;63.30;;;;;;5023029;28;21049;-73
2022/09/02 02:14:34;;;;;;;5.00;2.90;;;17.60;63.30;;;;;;5022315;28;20454;-73
2022/09/02 02:17:03;;;;;;;7.03;2.87;;;17.60;63.30;;;;;;5028646;28;20487;-73
2022/09/02 02:19:31;;;;;;;4.93;2.70;;;17.60;63.30;;;;;;5033758;28;20475;-73
2022/09/02 02:22:00;;;;;;;5.00;2.87;;;17.60;63.30;;;;;;5026674;28;20468;-73
2022/09/02 02:24:28;;;;;;;4.83;3.00;;;17.50;63.30;;;;;;5041093;28;20459;-75
2022/09/02 02:26:56;;;;;;;4.97;2.90;;;17.40;63.30;;;;;;5023039;28;20454;-75
2022/09/02 02:29:25;;;;;;;6.97;2.70;;;17.40;63.20;;;;;;5023750;28;20484;-76
2022/09/02 02:31:54;;;;;;;6.13;3.40;;;17.30;63.20;;;;;;5042662;28;20546;-76
2022/09/02 02:34:22;;;;;;;4.87;2.80;;;17.20;63.30;;;;;;5026362;28;20513;-76
2022/09/02 02:36:50;;;;;;;6.60;3.17;;;17.10;63.40;;;;;;5028097;28;20562;-76
2022/09/02 02:39:19;;;;;;;6.10;2.70;;;16.90;63.40;;;;;;5025226;28;20478;-76
2022/09/02 02:41:47;;;;;;;7.23;3.47;;;16.80;63.70;;;;;;5023679;28;20467;-76
2022/09/02 02:44:16;;;;;;;8.23;3.00;;;16.80;63.90;;;;;;5023837;28;20586;-76
2022/09/02 02:46:45;;;;;;;6.80;2.77;;;16.80;64.00;;;;;;5028296;28;20523;-76
2022/09/02 02:49:14;;;;;;;9.30;3.03;;;16.80;64.10;;;;;;5022060;28;20691;-76
2022/09/02 02:51:42;;;;;;;7.63;3.10;;;16.80;64.10;;;;;;5022748;28;20514;-75
2022/09/02 02:54:13;;;;;;;8.63;2.77;;;16.80;64.10;;;;;;5036257;28;20562;-75
2022/09/02 02:56:41;;;;;;;7.17;3.03;;;16.80;64.10;;;;;;5037452;28;20949;-75
2022/09/02 02:59:09;;;;;;;6.23;3.27;;;16.80;64.20;;;;;;5027689;28;20514;-75
2022/09/02 03:01:38;;;;;;;5.80;3.20;;;16.80;64.30;;;;;;5029147;28;20460;-75
2022/09/02 03:04:08;;;;;;;5.27;2.70;;;16.80;64.30;;;;;;5026859;28;20459;-75
2022/09/02 03:06:36;;;;;;;4.43;2.70;;;16.80;64.30;;;;;;5019173;28;20460;-75
2022/09/02 03:09:05;;;;;;;4.93;2.93;;;16.80;64.40;;;;;;5020968;28;20475;-75
2022/09/02 03:11:35;;;;;;;6.27;3.23;;;16.90;64.40;;;;;;5038691;28;20492;-75
2022/09/02 03:14:04;;;;;;;4.90;3.10;;;16.90;64.50;;;;;;5022587;28;20484;-75
2022/09/02 03:16:34;;;;;;;6.00;3.00;;;17.00;64.50;;;;;;5025423;28;20482;-75
2022/09/02 03:19:03;;;;;;;4.70;2.90;;;17.00;64.50;;;;;;5025995;28;20819;-76
2022/09/02 03:21:33;;;;;;;6.10;3.10;;;17.10;64.50;;;;;;5025952;28;20514;-75
2022/09/02 03:24:07;;;;;;;5.50;2.47;;;17.10;64.40;;;;;;5024043;28;20485;-75
2022/09/02 03:26:36;;;;;;;5.60;2.60;;;17.10;64.30;;;;;;5036650;28;20456;-73
2022/09/02 03:29:04;;;;;;;5.10;2.93;;;17.10;64.30;;;;;;5023080;28;20486;-73
2022/09/02 03:31:34;;;;;;;7.57;2.90;;;17.10;64.20;;;;;;5020852;28;20460;-72
2022/09/02 03:34:03;;;;;;;7.40;3.27;;;17.10;64.10;;;;;;5017494;28;20463;-74
2022/09/02 03:36:38;;;;;;;4.40;2.30;;;17.10;64.00;;;;;;5030205;28;20462;-76
2022/09/02 03:39:08;;;;;;;5.33;3.00;;;17.10;63.80;;;;;;5022340;28;20603;-76
2022/09/02 03:41:40;;;;;;;7.10;2.80;;;17.00;63.80;;;;;;5025894;28;20460;-76
2022/09/02 03:44:10;;;;;;;6.00;3.00;;;17.00;63.80;;;;;;5033136;28;20521;-75
2022/09/02 03:46:40;;;;;;;6.83;3.40;;;16.90;63.70;;;;;;5033725;28;20460;-75
2022/09/02 03:49:08;;;;;;;7.50;2.70;;;16.90;63.60;;;;;;5021226;28;20479;-75
2022/09/02 03:51:40;;;;;;;5.93;3.20;;;16.80;63.70;;;;;;5019844;28;20462;-75
2022/09/02 03:54:09;;;;;;;6.20;2.90;;;16.80;63.80;;;;;;5021641;28;20463;-75
2022/09/02 03:56:38;;;;;;;4.60;2.70;;;16.80;63.70;;;;;;5027869;28;20470;-74
2022/09/02 03:59:29;;;;;;;5.23;2.97;;;16.70;63.70;;;;;;5024963;28;20502;-75
2022/09/02 04:01:57;;;;;;;5.93;3.10;;;16.70;63.80;;;;;;5010098;28;20562;-75
2022/09/02 04:04:26;;;;;;;5.30;2.90;;;16.60;63.80;;;;;;5023698;28;20468;-75
2022/09/02 04:06:55;;;;;;;5.30;2.70;;;16.60;63.80;;;;;;5030706;28;20838;-75
2022/09/02 04:09:23;;;;;;;4.83;2.80;;;16.60;63.70;;;;;;5024816;28;20508;-76
2022/09/02 04:11:51;;;;;;;6.10;2.97;;;16.60;63.70;;;;;;5018147;28;20490;-76
2022/09/02 04:14:19;;;;;;;5.77;2.90;;;16.60;63.80;;;;;;5037034;28;20455;-76
2022/09/02 04:16:50;;;;;;;5.27;2.70;;;16.60;63.70;;;;;;5026482;28;20451;-75
2022/09/02 04:19:19;;;;;;;10.30;3.13;;;16.50;63.70;;;;;;5024591;28;20483;-75
2022/09/02 04:21:47;;;;;;;5.10;3.13;;;16.50;63.70;;;;;;5023145;28;20811;-75
2022/09/02 04:24:18;;;;;;;6.30;3.00;;;16.50;63.70;;;;;;5022956;28;20506;-76
2022/09/02 04:26:49;;;;;;;5.77;3.30;;;16.40;63.60;;;;;;5026015;28;20462;-76
2022/09/02 04:29:19;;;;;;;6.17;2.90;;;16.40;63.60;;;;;;5020804;28;20471;-76
2022/09/02 04:31:50;;;;;;;4.60;2.60;;;16.30;63.50;;;;;;5024614;28;20451;-76
2022/09/02 04:34:18;;;;;;;7.37;3.77;;;16.30;63.50;;;;;;5025269;28;21027;-76
2022/09/02 04:36:48;;;;;;;8.60;3.50;;;16.20;63.70;;;;;;5022401;28;20535;-75
2022/09/02 04:39:19;;;;;;;6.70;2.70;;;16.10;63.70;;;;;;5022370;28;20679;-75
2022/09/02 04:41:49;;;;;;;6.63;3.03;;;16.10;63.90;;;;;;5025770;28;21024;-76
2022/09/02 04:44:17;;;;;;;5.97;3.30;;;16.10;63.90;;;;;;5035545;28;20471;-76
2022/09/02 04:46:48;;;;;;;7.90;3.10;;;16.10;63.80;;;;;;5016049;28;20544;-75
2022/09/02 04:49:19;;;;;;;6.63;3.17;;;16.00;63.60;;;;;;5018821;28;20582;-75
2022/09/02 04:51:51;;;;;;;7.03;3.40;;;15.90;63.60;;;;;;5024354;28;20493;-76
2022/09/02 04:54:21;;;;;;;5.90;3.40;;;;;;;;;;5023894;28;20467;-76
2022/09/02 04:56:50;;;;;;;9.00;3.07;;;15.90;63.70;;;;;;5016229;28;20482;-76
2022/09/02 04:59:41;;;;;;;9.20;3.07;;;15.80;63.60;;;;;;5035260;28;20490;-76
2022/09/02 05:02:11;;;;;;;6.97;3.40;;;15.70;63.70;;;;;;5012996;28;20464;-76
2022/09/02 05:04:40;;;;;;;5.87;3.73;;;15.70;63.70;;;;;;5024689;28;20550;-76
2022/09/02 05:07:16;;;;;;;6.50;3.37;;;15.70;63.70;;;;;;5022285;28;20944;-76
2022/09/02 05:09:48;;;;;;;7.70;3.30;;;15.60;63.80;;;;;;5031394;28;20565;-76
2022/09/02 05:12:17;;;;;;;11.07;3.47;;;15.60;63.90;;;;;;5022672;28;20466;-76
2022/09/02 05:14:51;;;;;;;6.50;2.73;;;15.80;64.90;;;;;;5020936;28;21005;-76
2022/09/02 05:17:20;;;;;;;6.63;3.13;;;16.50;66.10;;;;;;5034010;28;20440;-76
2022/09/02 05:19:49;;;;;;;7.43;3.50;;;17.60;65.60;;;;;;5025010;28;21015;-75
2022/09/02 05:22:18;;;;;;;9.03;3.30;;;18.70;64.30;;;;;;5023253;28;21278;-75
2022/09/02 05:24:48;;;;;;;5.80;3.10;;;19.80;63.00;;;;;;5035658;28;20529;-73
2022/09/02 05:27:16;;;;;;;9.73;3.33;;;20.80;61.40;;;;;;5019126;28;20578;-73
2022/09/02 05:29:58;;;;;;;9.70;3.20;;;21.60;59.80;;;;;;5036621;28;21240;-74
2022/09/02 05:32:28;;;;;;;6.50;3.27;;;22.50;58.90;;;;;;5018626;28;20460;-75
2022/09/02 05:34:56;;;;;;;8.60;3.30;;;23.20;57.60;;;;;;5030016;28;20472;-75
2022/09/02 05:37:25;;;;;;;6.73;3.60;;;24.00;56.40;;;;;;5022326;28;21462;-76
2022/09/02 05:39:54;;;;;;;7.80;3.30;;;24.80;55.30;;;;;;5036109;28;20523;-75
2022/09/02 05:42:22;;;;;;;10.00;4.10;;;25.50;54.00;;;;;;5039094;28;20456;-76
2022/09/02 05:44:52;;;;;;;5.10;2.60;;;26.20;52.90;;;;;;5020733;28;21168;-76
2022/09/02 05:47:24;;;;;;;8.53;4.53;;;26.70;51.30;;;;;;5018615;28;20462;-76
2022/09/02 05:49:53;;;;;;;11.73;6.57;;;26.20;49.60;;;;;;5019180;28;20478;-74
2022/09/02 05:52:23;;;;;;;13.37;6.57;;;24.90;49.40;;;;;;5016993;28;20465;-73
2022/09/02 05:54:55;;;;;;;10.53;6.13;;;23.40;50.10;;;;;;5022087;28;20462;-73
2022/09/02 05:57:24;;;;;;;17.67;4.33;;;22.10;51.20;;;;;;5029564;28;20892;-73
2022/09/02 05:59:57;;;;;;;7.80;5.00;;;21.10;52.20;;;;;;5017101;28;21092;-74
2022/09/02 06:02:40;;;;;;;11.60;5.67;;;20.30;53.20;;;;;;5031649;28;20470;-73
2022/09/02 06:05:11;;;;;;;9.70;4.17;;;19.60;54.20;;;;;;5014822;28;20468;-73
2022/09/02 06:07:46;;;;;;;7.50;4.40;;;19.20;55.00;;;;;;5016628;28;21526;-72
2022/09/02 06:10:15;;;;;;;8.67;4.70;;;18.80;55.80;;;;;;5037715;28;20532;-73
2022/09/02 06:12:43;;;;;;;8.03;4.30;;;18.50;56.50;;;;;;5018332;28;21187;-73
2022/09/02 06:15:13;;;;;;;6.30;3.40;;;18.30;57.10;;;;;;5019304;28;20464;-73
2022/09/02 06:17:42;;;;;;;8.33;3.57;;;18.10;57.70;;;;;;5017704;28;20455;-73
2022/09/02 06:20:11;;;;;;;6.50;3.53;;;18.00;58.20;;;;;;5024063;28;20495;-73
2022/09/02 06:22:41;;;;;;;7.70;2.97;;;17.90;58.60;;;;;;5022706;28;21282;-73
2022/09/02 06:25:09;;;;;;;6.50;2.40;;;17.90;59.00;;;;;;5027327;28;20933;-73
2022/09/02 06:27:54;;;;;;;6.50;2.50;;;17.80;59.40;;;;;;5021582;28;20684;-73
2022/09/02 06:30:22;;;;;;;7.80;3.27;;;17.80;59.70;;;;;;5019420;28;20590;-76
2022/09/02 06:32:50;;;;;;;9.23;3.10;;;17.90;60.00;;;;;;5023752;28;20898;-73
2022/09/02 06:35:19;;;;;;;10.47;2.70;;;17.90;60.20;;;;;;5024950;28;20470;-73
2022/09/02 06:37:48;;;;;;;11.23;3.30;;;17.90;60.30;;;;;;5039846;28;20502;-73
2022/09/02 06:40:18;;;;;;;7.23;2.40;;;17.90;60.50;;;;;;5015952;28;20468;-73
2022/09/02 06:42:49;;;;;;;7.33;2.70;;;17.80;60.70;;;;;;5025470;28;20516;-73
2022/09/02 06:45:30;;;;;;;8.40;3.00;;;17.90;60.90;;;;;;5030686;28;20532;-73
2022/09/02 06:48:01;;;;;;;7.33;2.80;;;17.90;61.10;;;;;;5030181;28;20563;-72
2022/09/02 06:50:38;;;;;;;12.60;3.07;;;17.90;61.30;;;;;;5035377;28;20460;-72
2022/09/02 06:53:07;;;;;;;8.40;2.50;;;18.00;61.40;;;;;;5037628;28;20556;-76
2022/09/02 06:55:38;;;;;;;5.20;2.47;;;18.00;61.40;;;;;;5021516;28;20459;-73
2022/09/02 06:58:06;;;;;;;8.90;3.10;;;18.00;61.60;;;;;;5035583;28;20566;-73
2022/09/02 07:00:38;;;;;;;11.17;2.97;;;18.00;61.70;;;;;;5016089;28;20480;-73
2022/09/02 07:06:08;;;;;;;7.10;2.70;;;18.00;61.90;;;;;;5034603;28;20960;-72
2022/09/02 07:08:39;;;;;;;11.10;3.17;;;18.10;62.10;;;;;;5019124;28;20861;-73
2022/09/02 07:11:15;;;;;;;6.37;2.17;;;18.10;62.20;;;;;;5024436;28;20937;-72
2022/09/02 07:13:43;;;;;;;5.90;2.60;;;18.10;62.50;;;;;;5014140;28;20548;-73
2022/09/02 07:16:14;;;;;;;5.40;2.23;;;18.10;62.30;;;;;;5026073;28;21079;-72
2022/09/02 07:18:50;;;;;;;7.33;2.10;;;18.10;62.50;;;;;;5020664;28;20498;-73
2022/09/02 07:21:18;;;;;;;4.60;2.10;;;18.10;62.50;;;;;;5025114;28;20473;-73
2022/09/02 07:23:46;;;;;;;5.70;2.40;;;18.10;62.60;;;;;;5026660;28;20475;-76
2022/09/02 07:26:17;;;;;;;4.57;2.00;;;18.20;62.70;;;;;;5037844;28;20468;-72
2022/09/02 07:28:46;;;;;;;6.30;2.43;;;18.20;62.60;;;;;;5028659;28;20487;-73
2022/09/02 07:31:17;;;;;;;8.30;2.53;;;18.30;62.70;;;;;;5026806;28;21022;-72
2022/09/02 07:33:46;;;;;;;6.77;2.10;;;18.30;62.80;;;;;;5027641;28;20546;-73
2022/09/02 07:36:20;;;;;;;5.70;2.50;;;18.40;62.80;;;;;;5025968;28;20491;-72
2022/09/02 07:38:48;;;;;;;6.27;2.50;;;18.40;62.70;;;;;;5020530;28;20471;-73
2022/09/02 07:41:16;;;;;;;5.37;2.20;;;18.50;62.70;;;;;;5024398;28;20484;-77
2022/09/02 07:43:45;;;;;;;7.03;2.20;;;18.60;62.50;;;;;;5023379;28;20543;-78
2022/09/02 07:46:20;;;;;;;10.60;2.20;;;18.60;62.60;;;;;;5019417;28;20457;-77
2022/09/02 07:48:49;;;;;;;5.60;1.80;;;18.70;62.50;;;;;;5020804;28;20484;-78
2022/09/02 07:51:19;;;;;;;6.97;1.87;;;18.80;62.40;;;;;;5024486;28;20953;-77
2022/09/02 07:53:49;;;;;;;5.47;1.97;;;18.80;62.30;;;;;;5025247;28;20463;-78
2022/09/02 07:56:17;;;;;;;5.10;2.00;;;18.90;62.30;;;;;;5037222;28;20462;-78
2022/09/02 07:58:46;;;;;;;5.10;1.80;;;18.90;62.20;;;;;;5028850;28;20592;-78
2022/09/02 08:01:14;;;;;;;6.63;1.87;;;19.00;62.10;;;;;;5027592;28;20507;-77
2022/09/02 08:03:50;;;;;;;8.40;2.00;;;19.10;62.10;;;;;;5034316;28;20484;-78
2022/09/02 08:06:19;;;;;;;5.63;1.77;;;19.20;62.10;;;;;;5031075;28;21473;-79
2022/09/02 08:09:00;;;;;;;6.93;1.70;;;19.20;61.90;;;;;;5039320;28;20476;-78
2022/09/02 08:11:28;;;;;;;5.43;1.97;;;19.30;61.70;;;;;;5022237;28;21298;-78
2022/09/02 08:13:56;;;;;;;6.23;1.90;;;19.30;61.70;;;;;;5027971;28;20852;-83
2022/09/02 08:16:25;;;;;;;8.20;2.07;;;19.30;61.60;;;;;;5041623;28;20454;-79
2022/09/02 08:18:55;;;;;;;4.73;1.80;;;19.40;61.50;;;;;;5042774;28;20583;-78
2022/09/02 08:21:24;;;;;;;3.90;1.50;;;19.40;61.50;;;;;;5014983;28;20484;-81
2022/09/02 08:23:52;;;;;;;5.17;1.80;;;19.50;61.50;;;;;;5039269;28;20481;-79
2022/09/02 08:26:20;;;;;;;4.90;2.17;;;19.60;61.50;;;;;;5036205;28;20485;-79
2022/09/02 08:28:50;;;;;;;4.70;1.80;;;19.60;61.30;;;;;;5019129;28;20520;-83
2022/09/02 08:31:18;;;;;;;4.47;2.07;;;19.70;61.20;;;;;;5034992;28;20465;-81
2022/09/02 08:33:46;;;;;;;8.20;1.70;;;19.70;61.10;;;;;;5040050;28;20457;-78
2022/09/02 08:36:16;;;;;;;5.23;1.90;;;19.80;61.10;;;;;;5031026;28;20459;-80
2022/09/02 08:38:44;;;;;;;5.50;1.70;;;19.90;60.80;;;;;;5042557;28;20483;-77
2022/09/02 08:41:16;;;;;;;5.40;1.80;;;19.90;60.90;;;;;;5039431;28;20493;-77
2022/09/02 08:43:45;;;;;;;4.97;1.73;;;20.00;60.80;;;;;;5044341;28;20457;-80
2022/09/02 08:46:16;;;;;;;6.10;1.77;;;20.00;60.60;;;;;;5043497;28;20466;-80
2022/09/02 08:48:49;;;;;;;9.40;2.00;;;20.10;60.40;;;;;;5017873;28;21241;-82
2022/09/02 08:51:26;;;;;;;4.57;1.70;;;20.10;60.40;;;;;;5042840;28;20488;-79
2022/09/02 08:54:04;;;;;;;4.37;2.00;;;20.20;60.30;;;;;;5016755;28;20457;-79
2022/09/02 08:56:32;;;;;;;4.27;1.73;;;20.20;60.10;;;;;;5037931;28;20580;-79
2022/09/02 08:59:01;;;;;;;4.50;1.70;;;20.30;60.00;;;;;;5042575;28;20470;-79
2022/09/02 09:01:40;;;;;;;4.97;1.53;;;20.30;59.90;;;;;;5042594;28;20489;-81
2022/09/02 09:04:30;;;;;;;4.80;1.80;;;20.40;59.80;;;;;;5031263;28;20836;-81
2022/09/02 09:07:18;;;;;;;6.57;1.63;;;20.40;59.70;;;;;;5039097;28;20463;-80
2022/09/02 09:09:59;;;;;;;5.63;1.53;;;20.50;59.40;;;;;;5022275;28;20478;-79
2022/09/02 09:12:44;;;;;;;6.27;1.97;;;20.50;59.40;;;;;;5037682;28;20512;-79
2022/09/02 09:15:18;;;;;;;5.20;1.73;;;20.60;59.40;;;;;;5033145;28;20997;-78
2022/09/02 09:17:52;;;;;;;4.57;1.80;;;20.60;59.20;;;;;;5022273;28;20466;-78
2022/09/02 09:20:24;;;;;;;6.00;2.23;;;20.70;59.10;;;;;;5037386;28;20481;-79
2022/09/02 09:22:57;;;;;;;8.27;1.70;;;20.70;59.00;;;;;;5039983;28;20485;-81
2022/09/02 09:25:28;;;;;;;4.53;1.63;;;20.80;58.80;;;;;;5029220;28;20831;-78
2022/09/02 09:27:56;;;;;;;4.30;1.80;;;20.90;58.70;;;;;;5040601;28;20553;-80
2022/09/02 09:30:25;;;;;;;10.30;1.97;;;20.90;58.30;;;;;;5017657;28;20460;-80
2022/09/02 09:32:58;;;;;;;6.90;2.10;;;20.90;58.40;;;;;;5019274;28;20462;-80
2022/09/02 09:35:27;;;;;;;4.97;1.60;;;21.00;58.30;;;;;;5039384;28;20543;-79
2022/09/02 09:37:58;;;;;;;3.90;1.47;;;21.10;58.10;;;;;;5037468;28;20467;-81
2022/09/02 09:40:31;;;;;;;8.00;1.80;;;21.10;57.90;;;;;;5039840;28;20506;-81
2022/09/02 09:43:12;;;;;;;4.80;1.60;;;21.10;57.70;;;;;;5025487;28;20549;-80
2022/09/02 09:45:52;;;;;;;5.73;1.73;;;21.20;57.70;;;;;;5033306;28;20872;-79
2022/09/02 09:48:26;;;;;;;5.63;1.73;;;21.20;57.70;;;;;;5036564;28;20484;-79
2022/09/02 09:51:12;;;;;;;5.13;1.60;;;21.30;57.40;;;;;;5035203;28;20469;-83
2022/09/02 09:53:42;;;;;;;9.40;2.07;;;21.30;57.30;;;;;;5017706;28;20990;-76
2022/09/02 09:56:26;;;;;;;4.53;1.90;;;21.40;56.90;;;;;;5032923;28;20451;-77
2022/09/02 09:58:54;;;;;;;4.87;1.83;;;21.40;56.50;;;;;;5024758;28;20477;-79
2022/09/02 10:01:24;;;;;;;4.60;1.70;;;21.40;56.40;;;;;;5041084;28;20498;-77
2022/09/02 10:03:55;;;;;;;5.20;1.50;;;21.50;56.40;;;;;;5041176;28;20439;-77
2022/09/02 10:06:25;;;;;;;5.40;1.80;;;21.50;56.30;;;;;;5035257;28;20464;-75
2022/09/02 10:08:57;;;;;;;4.70;1.47;;;21.60;56.00;;;;;;5042005;28;20483;-76
2022/09/02 10:11:27;;;;;;;3.90;1.27;;;21.60;55.50;;;;;;5022483;28;20467;-76
2022/09/02 10:13:59;;;;;;;5.60;1.67;;;21.70;55.30;;;;;;5040904;28;20964;-77
2022/09/02 10:16:44;;;;;;;6.47;1.60;;;21.70;55.00;;;;;;5037531;28;20543;-76
2022/09/02 10:19:21;;;;;;;4.27;1.47;;;21.80;54.50;;;;;;5041916;28;20471;-76
2022/09/02 10:22:07;;;;;;;7.50;1.87;;;21.80;54.50;;;;;;5039065;28;20474;-77
2022/09/02 10:24:51;;;;;;;6.33;1.70;;;21.80;54.50;;;;;;5038954;28;20463;-75
2022/09/02 10:27:26;;;;;;;5.10;1.67;;;21.80;54.10;;;;;;5038623;28;21081;-77
2022/09/02 10:29:59;;;;;;;7.83;1.43;;;21.80;54.20;;;;;;5019322;28;20487;-78
2022/09/02 10:32:45;;;;;;;4.60;1.27;;;21.90;54.20;;;;;;5043287;28;20486;-75
2022/09/02 10:35:21;;;;;;;8.30;1.50;;;21.90;52.60;;;;;;5016494;28;20467;-74
2022/09/02 10:38:05;;;;;;;7.53;1.30;;;22.00;53.10;;;;;;5037793;28;21008;-75
2022/09/02 10:40:40;;;;;;;5.10;1.20;;;22.20;52.90;;;;;;5027655;28;20483;-75
2022/09/02 10:43:11;;;;;;;4.17;1.40;;;22.30;53.10;;;;;;5018983;28;20481;-73
2022/09/02 10:45:45;;;;;;;6.10;1.50;;;22.50;53.00;;;;;;5038588;28;20457;-74
2022/09/02 10:48:29;;;;;;;4.80;1.50;;;22.60;52.70;;;;;;5036443;28;20597;-73
2022/09/02 10:51:04;;;;;;;5.00;1.30;;;22.70;52.60;;;;;;5037331;28;20459;-74
2022/09/02 10:53:40;;;;;;;5.40;1.30;;;22.80;51.60;;;;;;5031809;28;20459;-75
2022/09/02 10:56:13;;;;;;;3.83;1.20;;;22.90;51.60;;;;;;5034748;28;20457;-73
2022/09/02 10:58:48;;;;;;;5.37;1.23;;;23.00;50.10;;;;;;5039117;28;20480;-74
2022/09/02 11:01:20;;;;;;;7.33;1.30;;;23.10;49.80;;;;;;5036079;28;21118;-74
2022/09/02 11:04:00;;;;;;;6.90;1.20;;;23.10;49.70;;;;;;5035467;28;20485;-73
2022/09/02 11:06:31;;;;;;;4.47;1.40;;;23.20;49.40;;;;;;5039182;28;20455;-74
2022/09/02 11:09:29;;;;;;;3.70;1.00;;;23.20;48.90;;;;;;5032589;28;20495;-74
2022/09/02 11:12:05;;;;;;;6.33;1.40;;;23.10;49.10;;;;;;5039559;28;20455;-74
2022/09/02 11:14:37;;;;;;;4.20;1.07;;;23.10;49.10;;;;;;5040095;28;20467;-75
2022/09/02 11:17:13;;;;;;;3.83;1.20;;;23.10;49.00;;;;;;5038928;28;20466;-74
2022/09/02 11:19:49;;;;;;;4.80;1.10;;;23.10;48.70;;;;;;5020284;28;20510;-73
2022/09/02 11:22:27;;;;;;;5.20;1.57;;;23.10;48.80;;;;;;5040276;28;20560;-75
2022/09/02 11:25:00;;;;;;;5.60;1.40;;;23.10;48.80;;;;;;5039960;28;20551;-75
2022/09/02 11:27:36;;;;;;;4.07;1.10;;;23.10;49.00;;;;;;5042273;28;20459;-75
2022/09/02 11:30:14;;;;;;;5.17;1.30;;;23.20;49.00;;;;;;5028003;28;20573;-74
2022/09/02 11:32:49;;;;;;;5.00;1.60;;;23.20;48.90;;;;;;5040150;28;20451;-74
2022/09/02 11:35:21;;;;;;;4.37;1.30;;;23.20;48.80;;;;;;5039493;28;20893;-74
2022/09/02 11:37:54;;;;;;;3.93;1.13;;;23.20;48.70;;;;;;5042989;28;20477;-75
2022/09/02 11:40:27;;;;;;;7.10;1.83;;;23.30;48.70;;;;;;5021740;28;20806;-74
2022/09/02 11:43:24;;;;;;;8.47;1.50;;;23.30;48.10;;;;;;5030069;28;20482;-75
2022/09/02 11:46:17;;;;;;;5.60;1.30;;;23.30;48.00;;;;;;5034962;28;20477;-76
2022/09/02 11:49:24;;;;;;;4.20;1.30;;;23.30;47.80;;;;;;5032446;28;20482;-71
2022/09/02 11:52:07;;;;;;;5.33;1.27;;;23.30;47.60;;;;;;5040792;28;20533;-73
2022/09/02 11:54:39;;;;;;;4.27;1.10;;;23.30;47.70;;;;;;5028257;28;20463;-72
2022/09/02 11:57:13;;;;;;;5.03;1.53;;;23.30;47.70;;;;;;5036671;28;20466;-72
2022/09/02 12:00:09;;;;;;;8.90;2.03;;;23.30;47.70;;;;;;5040761;28;20490;-71
2022/09/02 12:02:46;;;;;;;4.57;1.83;;;23.30;47.50;;;;;;5033485;28;20486;-74
2022/09/02 12:05:48;;;;;;;6.03;1.30;;;23.40;47.60;;;;;;5021805;28;20552;-74
2022/09/02 12:09:08;;;;;;;4.23;1.37;;;23.40;47.70;;;;;;5035546;28;20498;-72
2022/09/02 12:11:51;;;;;;;9.27;1.40;;;23.50;47.60;;;;;;5031677;28;20463;-72
2022/09/02 12:15:06;;;;;;;5.60;1.73;;;23.50;47.50;;;;;;5020189;28;20451;-72
2022/09/02 12:17:38;;;;;;;5.70;1.60;;;23.50;47.40;;;;;;5020486;28;20553;-73
2022/09/02 12:20:10;;;;;;;7.63;1.20;;;23.60;47.40;;;;;;5021663;28;20576;-73
2022/09/02 12:22:40;;;;;;;5.17;1.50;;;23.50;47.40;;;;;;5038222;28;20832;-72
2022/09/02 12:25:37;;;;;;;5.77;2.50;;;23.50;47.30;;;;;;5034039;28;20442;-74
2022/09/02 12:28:22;;;;;;;4.10;1.10;;;23.50;47.30;;;;;;5035127;28;20471;-72
2022/09/02 12:31:14;;;;;;;5.17;1.40;;;23.50;47.00;;;;;;5031933;28;20554;-72
2022/09/02 12:33:45;;;;;;;4.60;1.13;;;23.60;47.40;;;;;;5034502;28;20460;-73
2022/09/02 12:36:45;;;;;;;5.20;1.20;;;23.70;47.20;;;;;;5037147;28;20452;-73
2022/09/02 12:39:57;;;;;;;5.70;1.67;;;23.70;46.90;;;;;;5016914;28;20854;-72
2022/09/02 12:42:32;;;;;;;4.20;1.43;;;23.70;46.70;;;;;;5034652;28;20463;-75
2022/09/02 12:45:09;;;;;;;6.73;2.80;;;23.70;46.70;;;;;;5032005;28;20475;-74
2022/09/02 12:47:49;;;;;;;5.17;1.30;;;23.70;46.70;;;;;;5016344;28;20988;-72
2022/09/02 12:50:25;;;;;;;4.43;1.13;;;23.70;46.80;;;;;;5034776;28;20491;-72
2022/09/02 12:53:11;;;;;;;15.27;2.00;;;23.80;46.70;;;;;;5031974;28;20476;-72
2022/09/02 12:55:40;;;;;;;4.73;1.40;;;23.80;46.80;;;;;;5033489;28;20479;-73
2022/09/02 12:58:10;;;;;;;5.30;1.47;;;23.80;46.60;;;;;;5026686;28;20461;-73
2022/09/02 13:00:58;;;;;;;5.07;1.30;;;23.80;46.70;;;;;;5035605;28;20467;-72
2022/09/02 13:03:44;;;;;;;4.83;1.27;;;23.80;46.50;;;;;;5037859;28;20491;-73
2022/09/02 13:06:22;;;;;;;4.80;1.80;;;23.80;46.50;;;;;;5034076;28;20477;-72
2022/09/02 13:09:13;;;;;;;3.97;1.23;;;23.80;46.50;;;;;;5030679;28;20497;-73
2022/09/02 13:12:08;;;;;;;5.37;1.20;;;23.90;46.60;;;;;;5004355;28;20477;-73
2022/09/02 13:15:01;;;;;;;4.27;1.33;;;23.90;46.60;;;;;;5033792;28;20452;-72
2022/09/02 13:17:46;;;;;;;4.27;1.10;;;24.00;46.30;;;;;;5034693;28;20453;-72
2022/09/02 13:20:49;;;;;;;9.30;1.60;;;24.00;46.30;;;;;;5031704;28;20489;-72